sensor_id;sensor_type;location;lat;lon;timestamp;temperature;humidity
2435;DHT22;1228;51.022;6.764;2023-10-09T00:01:14;14.20;99.90
2435;DHT22;1228;51.022;6.764;2023-10-09T00:03:41;14.20;99.90
2435;DHT22;1228;51.022;6.764;2023-10-09T00:06:10;14.20;99.90
2435;DHT22;1228;51.022;6.764;2023-10-09T00:08:39;14.20;99.90
2435;DHT22;1228;51.022;6.764;2023-10-09T00:11:05;14.20;99.90
2435;DHT22;1228;51.022;6.764;2023-10-09T00:13:45;14.20;99.90
2435;DHT22;1228;51.022;6.764;2023-10-09T00:16:20;14.20;99.90
2435;DHT22;1228;51.022;6.764;2023-10-09T00:19:02;14.20;99.90
2435;DHT22;1228;51.022;6.764;2023-10-09T00:21:40;14.10;99.90
2435;DHT22;1228;51.022;6.764;2023-10-09T00:24:06;14.10;99.90
2435;DHT22;1228;51.022;6.764;2023-10-09T00:26:45;14.10;99.90
2435;DHT22;1228;51.022;6.764;2023-10-09T00:29:14;14.10;99.90
2435;DHT22;1228;51.022;6.764;2023-10-09T00:31:52;14.00;99.90
2435;DHT22;1228;51.022;6.764;2023-10-09T00:34:31;13.90;99.90
2435;DHT22;1228;51.022;6.764;2023-10-09T00:37:05;13.80;99.90
2435;DHT22;1228;51.022;6.764;2023-10-09T00:39:36;13.80;99.90
2435;DHT22;1228;51.022;6.764;2023-10-09T00:42:02;13.70;99.90
2435;DHT22;1228;51.022;6.764;2023-10-09T00:44:29;13.70;99.90
2435;DHT22;1228;51.022;6.764;2023-10-09T00:47:16;13.60;99.90
2435;DHT22;1228;51.022;6.764;2023-10-09T00:49:58;13.50;99.90
2435;DHT22;1228;51.022;6.764;2023-10-09T00:52:34;13.50;99.90
2435;DHT22;1228;51.022;6.764;2023-10-09T00:55:08;13.50;99.90
2435;DHT22;1228;51.022;6.764;2023-10-09T00:57:48;13.40;99.90
2435;DHT22;1228;51.022;6.764;2023-10-09T01:00:23;13.40;99.90
2435;DHT22;1228;51.022;6.764;2023-10-09T01:02:59;13.40;99.90
2435;DHT22;1228;51.022;6.764;2023-10-09T01:05:56;13.50;99.90
2435;DHT22;1228;51.022;6.764;2023-10-09T01:08:26;13.50;99.90
2435;DHT22;1228;51.022;6.764;2023-10-09T01:11:11;13.50;99.90
2435;DHT22;1228;51.022;6.764;2023-10-09T01:13:56;13.50;99.90
2435;DHT22;1228;51.022;6.764;2023-10-09T01:16:42;13.60;99.90
2435;DHT22;1228;51.022;6.764;2023-10-09T01:19:09;13.60;99.90
2435;DHT22;1228;51.022;6.764;2023-10-09T01:21:53;13.60;99.90
2435;DHT22;1228;51.022;6.764;2023-10-09T01:24:19;13.60;99.90
2435;DHT22;1228;51.022;6.764;2023-10-09T01:26:46;13.70;99.90
2435;DHT22;1228;51.022;6.764;2023-10-09T01:29:19;13.70;99.90
2435;DHT22;1228;51.022;6.764;2023-10-09T01:31:50;13.80;99.90
2435;DHT22;1228;51.022;6.764;2023-10-09T01:34:33;13.80;99.90
2435;DHT22;1228;51.022;6.764;2023-10-09T01:37:10;13.80;99.90
2435;DHT22;1228;51.022;6.764;2023-10-09T01:39:49;13.80;99.90
2435;DHT22;1228;51.022;6.764;2023-10-09T01:42:16;13.90;99.90
2435;DHT22;1228;51.022;6.764;2023-10-09T01:45:10;13.90;99.90
2435;DHT22;1228;51.022;6.764;2023-10-09T01:47:37;14.00;99.90
2435;DHT22;1228;51.022;6.764;2023-10-09T01:50:06;14.00;99.90
2435;DHT22;1228;51.022;6.764;2023-10-09T01:52:37;14.00;99.90
2435;DHT22;1228;51.022;6.764;2023-10-09T01:55:03;14.10;99.90
2435;DHT22;1228;51.022;6.764;2023-10-09T01:57:48;14.10;99.90
2435;DHT22;1228;51.022;6.764;2023-10-09T02:00:14;14.10;99.90
2435;DHT22;1228;51.022;6.764;2023-10-09T02:02:48;14.20;99.90
2435;DHT22;1228;51.022;6.764;2023-10-09T02:05:16;14.20;99.90
2435;DHT22;1228;51.022;6.764;2023-10-09T02:07:42;14.30;99.90
2435;DHT22;1228;51.022;6.764;2023-10-09T02:10:27;14.20;99.90
2435;DHT22;1228;51.022;6.764;2023-10-09T02:12:53;14.20;99.90
2435;DHT22;1228;51.022;6.764;2023-10-09T02:15:26;14.20;99.90
2435;DHT22;1228;51.022;6.764;2023-10-09T02:18:20;14.20;99.90
2435;DHT22;1228;51.022;6.764;2023-10-09T02:23:31;14.20;99.90
2435;DHT22;1228;51.022;6.764;2023-10-09T02:26:03;14.20;99.90
2435;DHT22;1228;51.022;6.764;2023-10-09T02:28:31;14.20;99.90
2435;DHT22;1228;51.022;6.764;2023-10-09T02:30:59;14.20;99.90
2435;DHT22;1228;51.022;6.764;2023-10-09T02:33:26;14.20;99.90
2435;DHT22;1228;51.022;6.764;2023-10-09T02:35:58;14.30;99.90
2435;DHT22;1228;51.022;6.764;2023-10-09T02:38:33;14.30;99.90
2435;DHT22;1228;51.022;6.764;2023-10-09T02:41:01;14.30;99.90
2435;DHT22;1228;51.022;6.764;2023-10-09T02:43:31;14.30;99.90
2435;DHT22;1228;51.022;6.764;2023-10-09T02:46:10;14.30;99.90
2435;DHT22;1228;51.022;6.764;2023-10-09T02:48:43;14.30;99.90
2435;DHT22;1228;51.022;6.764;2023-10-09T02:51:11;14.30;99.90
2435;DHT22;1228;51.022;6.764;2023-10-09T02:53:46;14.30;99.90
2435;DHT22;1228;51.022;6.764;2023-10-09T02:56:15;14.30;99.90
2435;DHT22;1228;51.022;6.764;2023-10-09T02:58:43;14.30;99.90
2435;DHT22;1228;51.022;6.764;2023-10-09T03:01:12;14.30;99.90
2435;DHT22;1228;51.022;6.764;2023-10-09T03:03:41;14.30;99.90
2435;DHT22;1228;51.022;6.764;2023-10-09T03:06:14;14.30;99.90
2435;DHT22;1228;51.022;6.764;2023-10-09T03:08:44;14.20;99.90
2435;DHT22;1228;51.022;6.764;2023-10-09T03:11:13;14.30;99.90
2435;DHT22;1228;51.022;6.764;2023-10-09T03:13:42;14.30;99.90
2435;DHT22;1228;51.022;6.764;2023-10-09T03:16:13;14.30;99.90
2435;DHT22;1228;51.022;6.764;2023-10-09T03:18:41;14.30;99.90
2435;DHT22;1228;51.022;6.764;2023-10-09T03:21:08;14.30;99.90
2435;DHT22;1228;51.022;6.764;2023-10-09T03:23:34;14.30;99.90
2435;DHT22;1228;51.022;6.764;2023-10-09T03:26:00;14.40;99.90
2435;DHT22;1228;51.022;6.764;2023-10-09T03:28:25;14.50;99.90
2435;DHT22;1228;51.022;6.764;2023-10-09T03:30:51;14.70;99.90
2435;DHT22;1228;51.022;6.764;2023-10-09T03:33:18;14.80;99.90
2435;DHT22;1228;51.022;6.764;2023-10-09T03:35:44;15.00;99.90
2435;DHT22;1228;51.022;6.764;2023-10-09T03:38:10;15.10;99.90
2435;DHT22;1228;51.022;6.764;2023-10-09T03:40:45;15.10;99.90
2435;DHT22;1228;51.022;6.764;2023-10-09T03:43:14;15.30;99.90
2435;DHT22;1228;51.022;6.764;2023-10-09T03:45:40;15.40;99.90
2435;DHT22;1228;51.022;6.764;2023-10-09T03:48:18;15.40;99.90
2435;DHT22;1228;51.022;6.764;2023-10-09T03:50:58;15.50;99.90
2435;DHT22;1228;51.022;6.764;2023-10-09T03:53:38;15.60;99.90
2435;DHT22;1228;51.022;6.764;2023-10-09T03:56:08;15.80;99.90
2435;DHT22;1228;51.022;6.764;2023-10-09T03:58:45;15.80;99.90
2435;DHT22;1228;51.022;6.764;2023-10-09T04:01:15;15.90;99.90
2435;DHT22;1228;51.022;6.764;2023-10-09T04:03:57;16.00;99.90
2435;DHT22;1228;51.022;6.764;2023-10-09T04:06:30;16.10;99.90
2435;DHT22;1228;51.022;6.764;2023-10-09T04:09:08;16.10;99.90
2435;DHT22;1228;51.022;6.764;2023-10-09T04:11:47;16.20;99.90
2435;DHT22;1228;51.022;6.764;2023-10-09T04:14:15;16.30;99.90
2435;DHT22;1228;51.022;6.764;2023-10-09T04:16:57;16.30;99.90
2435;DHT22;1228;51.022;6.764;2023-10-09T04:19:30;16.30;99.90
2435;DHT22;1228;51.022;6.764;2023-10-09T04:22:04;16.40;99.90
2435;DHT22;1228;51.022;6.764;2023-10-09T04:24:33;16.40;99.90
2435;DHT22;1228;51.022;6.764;2023-10-09T04:27:07;16.50;99.90
2435;DHT22;1228;51.022;6.764;2023-10-09T04:29:34;16.50;99.90
2435;DHT22;1228;51.022;6.764;2023-10-09T04:32:12;16.50;99.90
2435;DHT22;1228;51.022;6.764;2023-10-09T04:34:41;16.50;99.90
2435;DHT22;1228;51.022;6.764;2023-10-09T04:37:36;16.60;99.90
2435;DHT22;1228;51.022;6.764;2023-10-09T04:40:08;16.60;99.90
2435;DHT22;1228;51.022;6.764;2023-10-09T04:42:59;16.60;99.90
2435;DHT22;1228;51.022;6.764;2023-10-09T04:45:25;16.70;99.90
2435;DHT22;1228;51.022;6.764;2023-10-09T04:48:10;16.70;99.90
2435;DHT22;1228;51.022;6.764;2023-10-09T04:50:36;16.70;99.90
2435;DHT22;1228;51.022;6.764;2023-10-09T04:53:12;16.70;99.90
2435;DHT22;1228;51.022;6.764;2023-10-09T04:55:41;16.70;99.90
2435;DHT22;1228;51.022;6.764;2023-10-09T04:58:10;16.70;99.90
2435;DHT22;1228;51.022;6.764;2023-10-09T05:00:49;16.80;99.90
2435;DHT22;1228;51.022;6.764;2023-10-09T05:03:34;16.80;99.90
2435;DHT22;1228;51.022;6.764;2023-10-09T05:06:06;16.80;99.90
2435;DHT22;1228;51.022;6.764;2023-10-09T05:08:50;16.80;99.90
2435;DHT22;1228;51.022;6.764;2023-10-09T05:11:22;16.80;99.90
2435;DHT22;1228;51.022;6.764;2023-10-09T05:14:11;16.70;99.90
2435;DHT22;1228;51.022;6.764;2023-10-09T05:16:37;16.70;99.90
2435;DHT22;1228;51.022;6.764;2023-10-09T05:19:09;16.70;99.90
2435;DHT22;1228;51.022;6.764;2023-10-09T05:21:54;16.70;99.90
2435;DHT22;1228;51.022;6.764;2023-10-09T05:24:24;16.70;99.90
2435;DHT22;1228;51.022;6.764;2023-10-09T05:26:52;16.60;99.90
2435;DHT22;1228;51.022;6.764;2023-10-09T05:29:19;16.60;99.90
2435;DHT22;1228;51.022;6.764;2023-10-09T05:31:48;16.60;99.90
2435;DHT22;1228;51.022;6.764;2023-10-09T05:34:34;16.60;99.90
2435;DHT22;1228;51.022;6.764;2023-10-09T05:37:03;16.50;99.90
2435;DHT22;1228;51.022;6.764;2023-10-09T05:39:48;16.50;99.90
2435;DHT22;1228;51.022;6.764;2023-10-09T05:42:33;16.50;99.90
2435;DHT22;1228;51.022;6.764;2023-10-09T05:45:13;16.50;99.90
2435;DHT22;1228;51.022;6.764;2023-10-09T05:47:57;16.50;99.90
2435;DHT22;1228;51.022;6.764;2023-10-09T05:50:30;16.60;99.90
2435;DHT22;1228;51.022;6.764;2023-10-09T05:53:25;16.60;99.90
2435;DHT22;1228;51.022;6.764;2023-10-09T05:56:00;16.70;99.90
2435;DHT22;1228;51.022;6.764;2023-10-09T05:58:44;16.70;99.90
2435;DHT22;1228;51.022;6.764;2023-10-09T06:01:28;16.70;99.90
2435;DHT22;1228;51.022;6.764;2023-10-09T06:04:12;16.70;99.90
2435;DHT22;1228;51.022;6.764;2023-10-09T06:06:42;16.70;99.90
2435;DHT22;1228;51.022;6.764;2023-10-09T06:09:12;16.70;99.90
2435;DHT22;1228;51.022;6.764;2023-10-09T06:11:38;16.70;99.90
2435;DHT22;1228;51.022;6.764;2023-10-09T06:14:05;16.70;99.90
2435;DHT22;1228;51.022;6.764;2023-10-09T06:16:37;16.70;99.90
2435;DHT22;1228;51.022;6.764;2023-10-09T06:19:22;16.70;99.90
2435;DHT22;1228;51.022;6.764;2023-10-09T06:21:48;16.80;99.90
2435;DHT22;1228;51.022;6.764;2023-10-09T06:24:18;16.80;99.90
2435;DHT22;1228;51.022;6.764;2023-10-09T06:26:46;16.90;99.90
2435;DHT22;1228;51.022;6.764;2023-10-09T06:29:27;16.90;99.90
2435;DHT22;1228;51.022;6.764;2023-10-09T06:32:07;17.00;99.90
2435;DHT22;1228;51.022;6.764;2023-10-09T06:35:00;17.00;99.90
2435;DHT22;1228;51.022;6.764;2023-10-09T06:37:46;17.10;99.90
2435;DHT22;1228;51.022;6.764;2023-10-09T06:40:47;17.10;99.90
2435;DHT22;1228;51.022;6.764;2023-10-09T06:43:32;17.20;99.90
2435;DHT22;1228;51.022;6.764;2023-10-09T06:46:02;17.20;99.90
2435;DHT22;1228;51.022;6.764;2023-10-09T06:48:46;17.20;99.90
2435;DHT22;1228;51.022;6.764;2023-10-09T06:51:22;17.30;99.90
2435;DHT22;1228;51.022;6.764;2023-10-09T06:53:54;17.30;99.90
2435;DHT22;1228;51.022;6.764;2023-10-09T06:56:23;17.40;99.90
2435;DHT22;1228;51.022;6.764;2023-10-09T06:59:09;17.50;99.90
2435;DHT22;1228;51.022;6.764;2023-10-09T07:01:41;17.50;99.90
2435;DHT22;1228;51.022;6.764;2023-10-09T07:04:11;17.50;99.90
2435;DHT22;1228;51.022;6.764;2023-10-09T07:06:56;17.50;99.90
2435;DHT22;1228;51.022;6.764;2023-10-09T07:09:22;17.50;99.90
2435;DHT22;1228;51.022;6.764;2023-10-09T07:11:50;17.50;99.90
2435;DHT22;1228;51.022;6.764;2023-10-09T07:14:22;17.50;99.90
2435;DHT22;1228;51.022;6.764;2023-10-09T07:17:02;17.60;99.90
2435;DHT22;1228;51.022;6.764;2023-10-09T07:19:41;17.50;99.90
2435;DHT22;1228;51.022;6.764;2023-10-09T07:22:08;17.50;99.90
2435;DHT22;1228;51.022;6.764;2023-10-09T07:24:55;17.50;99.90
2435;DHT22;1228;51.022;6.764;2023-10-09T07:27:38;17.60;99.90
2435;DHT22;1228;51.022;6.764;2023-10-09T07:30:14;17.70;99.90
2435;DHT22;1228;51.022;6.764;2023-10-09T07:32:59;17.90;99.90
2435;DHT22;1228;51.022;6.764;2023-10-09T07:35:34;18.00;99.90
2435;DHT22;1228;51.022;6.764;2023-10-09T07:38:11;18.10;99.90
2435;DHT22;1228;51.022;6.764;2023-10-09T07:40:43;18.20;99.90
2435;DHT22;1228;51.022;6.764;2023-10-09T07:43:28;18.20;99.90
2435;DHT22;1228;51.022;6.764;2023-10-09T07:46:13;18.30;99.90
2435;DHT22;1228;51.022;6.764;2023-10-09T07:49:00;18.30;99.90
2435;DHT22;1228;51.022;6.764;2023-10-09T07:51:38;18.30;99.90
2435;DHT22;1228;51.022;6.764;2023-10-09T07:54:04;18.30;99.90
2435;DHT22;1228;51.022;6.764;2023-10-09T07:56:36;18.30;99.90
2435;DHT22;1228;51.022;6.764;2023-10-09T07:59:14;18.30;99.90
2435;DHT22;1228;51.022;6.764;2023-10-09T08:01:46;18.20;99.90
2435;DHT22;1228;51.022;6.764;2023-10-09T08:04:25;18.20;99.90
2435;DHT22;1228;51.022;6.764;2023-10-09T08:07:10;18.20;99.90
2435;DHT22;1228;51.022;6.764;2023-10-09T08:09:51;18.20;99.90
2435;DHT22;1228;51.022;6.764;2023-10-09T08:12:37;18.40;99.90
2435;DHT22;1228;51.022;6.764;2023-10-09T08:15:16;18.50;99.90
2435;DHT22;1228;51.022;6.764;2023-10-09T08:17:50;18.60;99.90
2435;DHT22;1228;51.022;6.764;2023-10-09T08:20:29;18.70;99.90
2435;DHT22;1228;51.022;6.764;2023-10-09T08:23:15;18.80;99.90
2435;DHT22;1228;51.022;6.764;2023-10-09T08:26:05;18.90;99.90
2435;DHT22;1228;51.022;6.764;2023-10-09T08:28:44;19.00;99.90
2435;DHT22;1228;51.022;6.764;2023-10-09T08:31:16;19.10;99.90
2435;DHT22;1228;51.022;6.764;2023-10-09T08:34:00;19.10;99.90
2435;DHT22;1228;51.022;6.764;2023-10-09T08:36:27;19.10;99.90
2435;DHT22;1228;51.022;6.764;2023-10-09T08:39:02;19.20;99.90
2435;DHT22;1228;51.022;6.764;2023-10-09T08:41:42;19.20;99.90
2435;DHT22;1228;51.022;6.764;2023-10-09T08:44:11;19.20;99.90
2435;DHT22;1228;51.022;6.764;2023-10-09T08:46:38;19.30;99.90
2435;DHT22;1228;51.022;6.764;2023-10-09T08:49:05;19.20;99.90
2435;DHT22;1228;51.022;6.764;2023-10-09T08:51:34;19.30;99.90
2435;DHT22;1228;51.022;6.764;2023-10-09T08:54:00;19.50;99.90
2435;DHT22;1228;51.022;6.764;2023-10-09T08:56:26;19.60;99.90
2435;DHT22;1228;51.022;6.764;2023-10-09T08:58:54;19.70;99.90
2435;DHT22;1228;51.022;6.764;2023-10-09T09:01:21;19.80;99.90
2435;DHT22;1228;51.022;6.764;2023-10-09T09:03:48;19.90;99.90
2435;DHT22;1228;51.022;6.764;2023-10-09T09:06:13;20.00;99.90
2435;DHT22;1228;51.022;6.764;2023-10-09T09:08:40;20.10;99.90
2435;DHT22;1228;51.022;6.764;2023-10-09T09:11:10;20.20;99.90
2435;DHT22;1228;51.022;6.764;2023-10-09T09:16:29;20.20;99.90
2435;DHT22;1228;51.022;6.764;2023-10-09T09:19:02;20.30;99.90
2435;DHT22;1228;51.022;6.764;2023-10-09T09:21:48;20.50;99.90
2435;DHT22;1228;51.022;6.764;2023-10-09T09:24:14;20.70;99.90
2435;DHT22;1228;51.022;6.764;2023-10-09T09:26:57;20.90;99.90
2435;DHT22;1228;51.022;6.764;2023-10-09T09:32:11;21.00;99.90
2435;DHT22;1228;51.022;6.764;2023-10-09T09:34:50;21.10;99.90
2435;DHT22;1228;51.022;6.764;2023-10-09T09:37:21;21.00;99.90
2435;DHT22;1228;51.022;6.764;2023-10-09T09:39:57;21.00;99.90
2435;DHT22;1228;51.022;6.764;2023-10-09T09:42:23;21.00;99.90
2435;DHT22;1228;51.022;6.764;2023-10-09T09:44:53;21.00;99.90
2435;DHT22;1228;51.022;6.764;2023-10-09T09:47:21;21.10;99.90
2435;DHT22;1228;51.022;6.764;2023-10-09T09:49:56;21.20;99.90
2435;DHT22;1228;51.022;6.764;2023-10-09T09:52:37;21.40;99.90
2435;DHT22;1228;51.022;6.764;2023-10-09T09:55:08;21.70;99.90
2435;DHT22;1228;51.022;6.764;2023-10-09T09:57:44;21.90;99.90
2435;DHT22;1228;51.022;6.764;2023-10-09T10:00:19;22.20;99.90
2435;DHT22;1228;51.022;6.764;2023-10-09T10:03:18;22.30;99.90
2435;DHT22;1228;51.022;6.764;2023-10-09T10:05:45;22.50;99.90
2435;DHT22;1228;51.022;6.764;2023-10-09T10:08:19;22.70;99.90
2435;DHT22;1228;51.022;6.764;2023-10-09T10:10:48;23.00;99.90
2435;DHT22;1228;51.022;6.764;2023-10-09T10:16:09;23.70;99.90
2435;DHT22;1228;51.022;6.764;2023-10-09T10:19:00;23.80;99.90
2435;DHT22;1228;51.022;6.764;2023-10-09T10:21:33;23.50;99.90
2435;DHT22;1228;51.022;6.764;2023-10-09T10:24:03;23.50;99.90
2435;DHT22;1228;51.022;6.764;2023-10-09T10:26:33;23.60;99.90
2435;DHT22;1228;51.022;6.764;2023-10-09T10:29:20;23.80;99.90
2435;DHT22;1228;51.022;6.764;2023-10-09T10:32:06;23.90;99.90
2435;DHT22;1228;51.022;6.764;2023-10-09T10:37:33;23.90;99.90
2435;DHT22;1228;51.022;6.764;2023-10-09T10:40:06;23.80;99.90
2435;DHT22;1228;51.022;6.764;2023-10-09T10:42:48;23.80;99.90
2435;DHT22;1228;51.022;6.764;2023-10-09T10:45:35;23.70;99.90
2435;DHT22;1228;51.022;6.764;2023-10-09T10:48:03;23.50;99.90
2435;DHT22;1228;51.022;6.764;2023-10-09T10:50:34;23.30;99.90
2435;DHT22;1228;51.022;6.764;2023-10-09T10:53:13;23.10;99.90
2435;DHT22;1228;51.022;6.764;2023-10-09T10:55:54;23.10;99.90
2435;DHT22;1228;51.022;6.764;2023-10-09T10:58:21;22.90;99.90
2435;DHT22;1228;51.022;6.764;2023-10-09T11:00:54;22.90;99.90
2435;DHT22;1228;51.022;6.764;2023-10-09T11:03:24;22.80;99.90
2435;DHT22;1228;51.022;6.764;2023-10-09T11:06:02;22.80;99.90
2435;DHT22;1228;51.022;6.764;2023-10-09T11:08:49;23.00;99.90
2435;DHT22;1228;51.022;6.764;2023-10-09T11:11:20;23.20;99.90
2435;DHT22;1228;51.022;6.764;2023-10-09T11:13:46;23.10;99.90
2435;DHT22;1228;51.022;6.764;2023-10-09T11:16:20;23.00;99.90
2435;DHT22;1228;51.022;6.764;2023-10-09T11:19:05;23.10;99.90
2435;DHT22;1228;51.022;6.764;2023-10-09T11:21:39;23.30;99.90
2435;DHT22;1228;51.022;6.764;2023-10-09T11:24:08;23.40;99.90
2435;DHT22;1228;51.022;6.764;2023-10-09T11:26:50;23.40;99.90
2435;DHT22;1228;51.022;6.764;2023-10-09T11:29:23;23.40;99.90
2435;DHT22;1228;51.022;6.764;2023-10-09T11:32:04;23.50;99.90
2435;DHT22;1228;51.022;6.764;2023-10-09T11:35:01;23.50;99.90
2435;DHT22;1228;51.022;6.764;2023-10-09T11:37:34;23.50;99.90
2435;DHT22;1228;51.022;6.764;2023-10-09T11:40:30;23.60;99.90
2435;DHT22;1228;51.022;6.764;2023-10-09T11:43:13;23.60;99.90
2435;DHT22;1228;51.022;6.764;2023-10-09T11:45:39;23.50;99.90
2435;DHT22;1228;51.022;6.764;2023-10-09T11:48:18;23.50;99.90
2435;DHT22;1228;51.022;6.764;2023-10-09T11:51:12;23.50;99.90
2435;DHT22;1228;51.022;6.764;2023-10-09T11:53:45;23.40;99.90
2435;DHT22;1228;51.022;6.764;2023-10-09T11:56:23;23.40;99.90
2435;DHT22;1228;51.022;6.764;2023-10-09T11:58:52;23.30;99.90
2435;DHT22;1228;51.022;6.764;2023-10-09T12:01:18;23.10;99.90
2435;DHT22;1228;51.022;6.764;2023-10-09T12:03:48;23.10;99.90
2435;DHT22;1228;51.022;6.764;2023-10-09T12:06:18;23.00;99.90
2435;DHT22;1228;51.022;6.764;2023-10-09T12:08:45;23.00;99.90
2435;DHT22;1228;51.022;6.764;2023-10-09T12:11:15;22.90;99.90
2435;DHT22;1228;51.022;6.764;2023-10-09T12:13:48;22.90;99.90
2435;DHT22;1228;51.022;6.764;2023-10-09T12:16:14;23.00;99.90
2435;DHT22;1228;51.022;6.764;2023-10-09T12:18:41;23.10;99.90
2435;DHT22;1228;51.022;6.764;2023-10-09T12:21:08;23.10;99.90
2435;DHT22;1228;51.022;6.764;2023-10-09T12:23:34;22.90;99.90
2435;DHT22;1228;51.022;6.764;2023-10-09T12:26:03;22.90;99.90
2435;DHT22;1228;51.022;6.764;2023-10-09T12:28:29;23.00;99.90
2435;DHT22;1228;51.022;6.764;2023-10-09T12:30:59;23.30;99.90
2435;DHT22;1228;51.022;6.764;2023-10-09T12:33:28;23.40;99.90
2435;DHT22;1228;51.022;6.764;2023-10-09T12:35:54;23.50;99.90
2435;DHT22;1228;51.022;6.764;2023-10-09T12:38:27;23.40;99.90
2435;DHT22;1228;51.022;6.764;2023-10-09T12:41:06;23.30;99.90
2435;DHT22;1228;51.022;6.764;2023-10-09T12:43:51;23.20;99.90
2435;DHT22;1228;51.022;6.764;2023-10-09T12:46:18;23.30;99.90
2435;DHT22;1228;51.022;6.764;2023-10-09T12:48:48;23.20;99.90
2435;DHT22;1228;51.022;6.764;2023-10-09T12:51:15;23.10;99.90
2435;DHT22;1228;51.022;6.764;2023-10-09T12:53:44;23.00;99.90
2435;DHT22;1228;51.022;6.764;2023-10-09T12:56:10;23.10;99.90
2435;DHT22;1228;51.022;6.764;2023-10-09T12:58:40;23.00;99.90
2435;DHT22;1228;51.022;6.764;2023-10-09T13:01:20;22.90;99.90
2435;DHT22;1228;51.022;6.764;2023-10-09T13:03:46;22.80;99.90
2435;DHT22;1228;51.022;6.764;2023-10-09T13:06:15;22.90;99.90
2435;DHT22;1228;51.022;6.764;2023-10-09T13:08:41;22.80;99.90
2435;DHT22;1228;51.022;6.764;2023-10-09T13:11:09;22.70;99.90
2435;DHT22;1228;51.022;6.764;2023-10-09T13:13:43;22.70;99.90
2435;DHT22;1228;51.022;6.764;2023-10-09T13:16:17;22.60;99.90
2435;DHT22;1228;51.022;6.764;2023-10-09T13:18:49;22.60;99.90
2435;DHT22;1228;51.022;6.764;2023-10-09T13:21:22;22.50;99.90
2435;DHT22;1228;51.022;6.764;2023-10-09T13:23:50;22.60;99.90
2435;DHT22;1228;51.022;6.764;2023-10-09T13:26:17;22.50;99.90
2435;DHT22;1228;51.022;6.764;2023-10-09T13:28:47;22.50;99.90
2435;DHT22;1228;51.022;6.764;2023-10-09T13:31:14;22.50;99.90
2435;DHT22;1228;51.022;6.764;2023-10-09T13:33:43;22.40;99.90
2435;DHT22;1228;51.022;6.764;2023-10-09T13:36:13;22.30;99.90
2435;DHT22;1228;51.022;6.764;2023-10-09T13:38:48;22.30;99.90
2435;DHT22;1228;51.022;6.764;2023-10-09T13:41:13;22.20;99.90
2435;DHT22;1228;51.022;6.764;2023-10-09T13:43:40;22.10;99.90
2435;DHT22;1228;51.022;6.764;2023-10-09T13:46:07;22.10;99.90
2435;DHT22;1228;51.022;6.764;2023-10-09T13:48:34;22.20;99.90
2435;DHT22;1228;51.022;6.764;2023-10-09T13:51:04;22.20;99.90
2435;DHT22;1228;51.022;6.764;2023-10-09T13:53:33;22.20;99.90
2435;DHT22;1228;51.022;6.764;2023-10-09T13:56:02;22.30;99.90
2435;DHT22;1228;51.022;6.764;2023-10-09T13:58:28;22.40;99.90
2435;DHT22;1228;51.022;6.764;2023-10-09T14:00:53;22.50;99.90
2435;DHT22;1228;51.022;6.764;2023-10-09T14:03:22;22.70;99.90
2435;DHT22;1228;51.022;6.764;2023-10-09T14:05:49;22.90;99.90
2435;DHT22;1228;51.022;6.764;2023-10-09T14:08:22;23.10;99.90
2435;DHT22;1228;51.022;6.764;2023-10-09T14:10:49;23.20;99.90
2435;DHT22;1228;51.022;6.764;2023-10-09T14:13:15;23.20;99.90
2435;DHT22;1228;51.022;6.764;2023-10-09T14:15:42;23.20;99.90
2435;DHT22;1228;51.022;6.764;2023-10-09T14:18:08;23.00;99.90
2435;DHT22;1228;51.022;6.764;2023-10-09T14:20:37;23.00;99.90
2435;DHT22;1228;51.022;6.764;2023-10-09T14:23:03;23.00;99.90
2435;DHT22;1228;51.022;6.764;2023-10-09T14:25:38;23.10;99.90
2435;DHT22;1228;51.022;6.764;2023-10-09T14:28:06;23.10;99.90
2435;DHT22;1228;51.022;6.764;2023-10-09T14:30:38;23.00;99.90
2435;DHT22;1228;51.022;6.764;2023-10-09T14:33:13;22.90;99.90
2435;DHT22;1228;51.022;6.764;2023-10-09T14:35:42;22.90;99.90
2435;DHT22;1228;51.022;6.764;2023-10-09T14:38:10;22.90;99.90
2435;DHT22;1228;51.022;6.764;2023-10-09T14:40:44;23.00;99.90
2435;DHT22;1228;51.022;6.764;2023-10-09T14:43:11;23.00;99.90
2435;DHT22;1228;51.022;6.764;2023-10-09T14:45:48;23.00;99.90
2435;DHT22;1228;51.022;6.764;2023-10-09T14:48:17;23.00;99.90
2435;DHT22;1228;51.022;6.764;2023-10-09T14:50:53;23.20;99.90
2435;DHT22;1228;51.022;6.764;2023-10-09T14:53:20;23.40;99.90
2435;DHT22;1228;51.022;6.764;2023-10-09T14:55:46;23.40;99.90
2435;DHT22;1228;51.022;6.764;2023-10-09T14:58:13;23.40;99.90
2435;DHT22;1228;51.022;6.764;2023-10-09T15:00:39;23.20;99.90
2435;DHT22;1228;51.022;6.764;2023-10-09T15:03:11;22.90;99.90
2435;DHT22;1228;51.022;6.764;2023-10-09T15:05:42;22.50;99.90
2435;DHT22;1228;51.022;6.764;2023-10-09T15:08:09;22.40;99.90
2435;DHT22;1228;51.022;6.764;2023-10-09T15:10:48;22.10;99.90
2435;DHT22;1228;51.022;6.764;2023-10-09T15:13:14;21.90;99.90
2435;DHT22;1228;51.022;6.764;2023-10-09T15:15:44;21.70;99.90
2435;DHT22;1228;51.022;6.764;2023-10-09T15:18:11;21.60;99.90
2435;DHT22;1228;51.022;6.764;2023-10-09T15:20:40;21.60;99.90
2435;DHT22;1228;51.022;6.764;2023-10-09T15:23:07;21.60;99.90
2435;DHT22;1228;51.022;6.764;2023-10-09T15:25:33;21.80;99.90
2435;DHT22;1228;51.022;6.764;2023-10-09T15:28:03;21.90;99.90
2435;DHT22;1228;51.022;6.764;2023-10-09T15:30:29;21.90;99.90
2435;DHT22;1228;51.022;6.764;2023-10-09T15:32:57;22.00;99.90
2435;DHT22;1228;51.022;6.764;2023-10-09T15:35:23;21.90;99.90
2435;DHT22;1228;51.022;6.764;2023-10-09T15:37:48;21.90;99.90
2435;DHT22;1228;51.022;6.764;2023-10-09T15:40:21;21.90;99.90
2435;DHT22;1228;51.022;6.764;2023-10-09T15:42:50;21.80;99.90
2435;DHT22;1228;51.022;6.764;2023-10-09T15:45:17;21.70;99.90
2435;DHT22;1228;51.022;6.764;2023-10-09T15:47:42;21.70;99.90
2435;DHT22;1228;51.022;6.764;2023-10-09T15:50:10;21.60;99.90
2435;DHT22;1228;51.022;6.764;2023-10-09T15:52:38;21.50;99.90
2435;DHT22;1228;51.022;6.764;2023-10-09T15:55:05;21.30;99.90
2435;DHT22;1228;51.022;6.764;2023-10-09T15:57:41;21.30;99.90
2435;DHT22;1228;51.022;6.764;2023-10-09T16:00:08;21.10;99.90
2435;DHT22;1228;51.022;6.764;2023-10-09T16:02:40;21.00;99.90
2435;DHT22;1228;51.022;6.764;2023-10-09T16:05:06;20.80;99.90
2435;DHT22;1228;51.022;6.764;2023-10-09T16:07:35;20.60;99.90
2435;DHT22;1228;51.022;6.764;2023-10-09T16:10:03;20.50;99.90
2435;DHT22;1228;51.022;6.764;2023-10-09T16:12:31;20.30;99.90
2435;DHT22;1228;51.022;6.764;2023-10-09T16:14:57;20.20;99.90
2435;DHT22;1228;51.022;6.764;2023-10-09T16:17:22;20.10;99.90
2435;DHT22;1228;51.022;6.764;2023-10-09T16:19:50;20.00;99.90
2435;DHT22;1228;51.022;6.764;2023-10-09T16:22:16;19.90;99.90
2435;DHT22;1228;51.022;6.764;2023-10-09T16:24:43;19.80;99.90
2435;DHT22;1228;51.022;6.764;2023-10-09T16:27:12;19.80;99.90
2435;DHT22;1228;51.022;6.764;2023-10-09T16:29:40;19.70;99.90
2435;DHT22;1228;51.022;6.764;2023-10-09T16:32:06;19.60;99.90
2435;DHT22;1228;51.022;6.764;2023-10-09T16:34:33;19.50;99.90
2435;DHT22;1228;51.022;6.764;2023-10-09T16:37:00;19.50;99.90
2435;DHT22;1228;51.022;6.764;2023-10-09T16:39:26;19.50;99.90
2435;DHT22;1228;51.022;6.764;2023-10-09T16:42:00;19.40;99.90
2435;DHT22;1228;51.022;6.764;2023-10-09T16:44:26;19.40;99.90
2435;DHT22;1228;51.022;6.764;2023-10-09T16:46:52;19.30;99.90
2435;DHT22;1228;51.022;6.764;2023-10-09T16:49:19;19.30;99.90
2435;DHT22;1228;51.022;6.764;2023-10-09T16:51:50;19.30;99.90
2435;DHT22;1228;51.022;6.764;2023-10-09T16:54:16;19.40;99.90